createdAt,value
2018-04-24T00:00:40.460Z,0.00
2018-04-24T00:01:40.445Z,0.00
2018-04-24T00:02:40.437Z,0.00
2018-04-24T00:03:40.429Z,0.00
2018-04-24T00:05:01.423Z,0.00
2018-04-24T00:05:40.405Z,0.00
2018-04-24T00:06:40.392Z,0.00
2018-04-24T00:07:40.387Z,0.00
2018-04-24T00:08:40.384Z,0.00
2018-04-24T00:09:40.364Z,0.00
2018-04-24T00:11:01.364Z,0.00
2018-04-24T00:11:40.351Z,0.00
2018-04-24T00:12:40.349Z,0.00
2018-04-24T00:13:40.341Z,0.00
2018-04-24T00:14:40.315Z,0.00
2018-04-24T00:15:40.309Z,0.00
2018-04-24T00:17:01.314Z,0.00
2018-04-24T00:17:40.286Z,0.00
2018-04-24T00:18:40.290Z,0.00
2018-04-24T00:19:40.266Z,0.00
2018-04-24T00:20:40.256Z,0.00
2018-04-24T00:21:40.249Z,0.00
2018-04-24T00:23:01.244Z,0.00
2018-04-24T00:23:40.235Z,0.00
2018-04-24T00:24:40.216Z,0.00
2018-04-24T00:25:40.218Z,0.00
2018-04-24T00:26:40.211Z,0.00
2018-04-24T00:27:40.195Z,0.00
2018-04-24T00:29:01.190Z,0.00
2018-04-24T00:29:40.175Z,0.00
2018-04-24T00:30:40.164Z,0.00
2018-04-24T00:31:40.157Z,0.00
2018-04-24T00:32:40.140Z,0.00
2018-04-24T00:33:40.133Z,0.00
2018-04-24T00:35:01.142Z,0.00
2018-04-24T00:35:40.123Z,0.00
2018-04-24T00:36:40.106Z,0.00
2018-04-24T00:37:40.097Z,0.00
2018-04-24T00:38:40.080Z,0.00
2018-04-24T00:39:40.073Z,0.00
2018-04-24T00:41:01.072Z,0.00
2018-04-24T00:41:40.065Z,0.00
2018-04-24T00:42:40.046Z,0.00
2018-04-24T00:43:40.037Z,0.00
2018-04-24T00:44:40.060Z,0.00
2018-04-24T00:45:40.025Z,0.00
2018-04-24T00:47:01.040Z,0.00
2018-04-24T00:47:40.007Z,0.00
2018-04-24T00:48:39.987Z,0.00
2018-04-24T00:49:39.973Z,0.00
2018-04-24T00:50:39.968Z,0.00
2018-04-24T00:51:39.958Z,0.00
2018-04-24T00:53:00.953Z,0.00
2018-04-24T00:53:39.946Z,0.00
2018-04-24T00:54:39.929Z,0.00
2018-04-24T00:55:39.923Z,0.00
2018-04-24T00:56:39.901Z,0.00
2018-04-24T00:57:39.895Z,0.00
2018-04-24T00:59:00.890Z,0.00
2018-04-24T00:59:39.880Z,0.00
2018-04-24T01:00:39.861Z,0.00
2018-04-24T01:01:39.878Z,0.00
2018-04-24T01:02:39.843Z,0.00
2018-04-24T01:03:39.830Z,0.00
2018-04-24T01:05:00.834Z,0.00
2018-04-24T01:05:39.813Z,0.00
2018-04-24T01:06:39.827Z,0.00
2018-04-24T01:07:39.802Z,0.00
2018-04-24T01:08:39.788Z,0.00
2018-04-24T01:09:39.773Z,0.00
2018-04-24T01:11:00.769Z,0.00
2018-04-24T01:11:39.754Z,0.00
2018-04-24T01:12:39.757Z,0.00
2018-04-24T01:13:39.748Z,0.00
2018-04-24T01:14:39.719Z,0.00
2018-04-24T01:15:39.713Z,0.00
2018-04-24T01:17:00.736Z,0.00
2018-04-24T01:17:39.691Z,0.00
2018-04-24T01:18:39.692Z,0.00
2018-04-24T01:19:39.679Z,0.00
2018-04-24T01:20:39.664Z,0.00
2018-04-24T01:21:39.659Z,0.00
2018-04-24T01:23:00.659Z,0.00
2018-04-24T01:23:39.642Z,0.00
2018-04-24T01:24:39.627Z,0.00
2018-04-24T01:25:39.615Z,0.00
2018-04-24T01:26:39.611Z,0.00
2018-04-24T01:27:39.595Z,0.00
2018-04-24T01:29:00.587Z,0.00
2018-04-24T01:29:39.589Z,0.00
2018-04-24T01:30:39.568Z,0.00
2018-04-24T01:31:39.558Z,0.00
2018-04-24T01:32:39.546Z,0.00
2018-04-24T01:33:39.534Z,0.00
2018-04-24T01:35:00.536Z,0.00
2018-04-24T01:35:39.523Z,0.00
2018-04-24T01:36:39.505Z,0.00
2018-04-24T01:37:39.499Z,0.00
2018-04-24T01:38:39.482Z,0.00
2018-04-24T01:39:39.479Z,0.00
2018-04-24T01:41:00.463Z,0.00
2018-04-24T01:41:39.453Z,0.00
2018-04-24T01:42:39.441Z,0.00
2018-04-24T01:43:39.452Z,0.00
2018-04-24T01:44:39.422Z,0.00
2018-04-24T01:45:39.415Z,0.00
2018-04-24T01:47:00.401Z,0.00
2018-04-24T01:47:39.397Z,0.00
2018-04-24T01:48:39.377Z,0.00
2018-04-24T01:49:39.375Z,0.00
2018-04-24T01:50:39.361Z,0.00
2018-04-24T01:51:39.353Z,0.00
2018-04-24T01:53:00.339Z,0.00
2018-04-24T01:53:39.330Z,0.00
2018-04-24T01:54:39.333Z,0.00
2018-04-24T01:55:39.304Z,0.00
2018-04-24T01:56:39.292Z,0.00
2018-04-24T01:57:39.286Z,0.00
2018-04-24T01:59:00.277Z,0.00
2018-04-24T01:59:39.263Z,0.00
2018-04-24T02:00:39.264Z,0.00
2018-04-24T02:01:39.246Z,0.00
2018-04-24T02:02:39.239Z,0.00
2018-04-24T02:03:39.241Z,0.00
2018-04-24T02:05:00.224Z,0.00
2018-04-24T02:05:39.204Z,0.00
2018-04-24T02:06:39.194Z,0.00
2018-04-24T02:07:39.175Z,0.00
2018-04-24T02:08:39.174Z,0.00
2018-04-24T02:09:39.158Z,0.00
2018-04-24T02:11:00.161Z,0.00
2018-04-24T02:11:39.141Z,0.00
2018-04-24T02:12:39.139Z,0.00
2018-04-24T02:13:39.124Z,0.00
2018-04-24T02:14:39.108Z,0.00
2018-04-24T02:15:39.109Z,0.00
2018-04-24T02:17:00.165Z,0.00
2018-04-24T02:17:39.084Z,0.00
2018-04-24T02:18:39.072Z,0.00
2018-04-24T02:19:39.056Z,0.00
2018-04-24T02:20:39.046Z,0.00
2018-04-24T02:21:39.041Z,0.00
2018-04-24T02:23:00.043Z,0.00
2018-04-24T02:23:39.025Z,0.00
2018-04-24T02:24:39.019Z,0.00
2018-04-24T02:25:38.993Z,0.00
2018-04-24T02:26:38.996Z,0.00
2018-04-24T02:27:38.979Z,0.00
2018-04-24T02:28:59.981Z,0.00
2018-04-24T02:29:38.964Z,0.00
2018-04-24T02:30:38.950Z,0.00
2018-04-24T02:31:38.937Z,0.00
2018-04-24T02:32:38.928Z,0.00
2018-04-24T02:33:38.940Z,0.00
2018-04-24T02:34:59.919Z,0.00
2018-04-24T02:35:38.905Z,0.00
2018-04-24T02:36:38.897Z,0.00
2018-04-24T02:37:38.875Z,0.00
2018-04-24T02:38:38.864Z,0.00
2018-04-24T02:39:38.856Z,0.00
2018-04-24T02:40:59.860Z,0.00
2018-04-24T02:41:38.870Z,0.00
2018-04-24T02:42:38.831Z,0.00
2018-04-24T02:43:38.821Z,0.00
2018-04-24T02:44:38.812Z,0.00
2018-04-24T02:45:38.795Z,0.00
2018-04-24T02:46:59.795Z,0.00
2018-04-24T02:47:38.782Z,0.00
2018-04-24T02:48:38.764Z,0.00
2018-04-24T02:49:38.752Z,0.00
2018-04-24T02:50:38.746Z,0.00
2018-04-24T02:51:38.734Z,0.00
2018-04-24T02:52:59.730Z,0.00
2018-04-24T02:53:38.710Z,0.00
2018-04-24T02:54:38.712Z,0.00
2018-04-24T02:55:38.699Z,0.00
2018-04-24T02:56:38.684Z,0.00
2018-04-24T02:57:38.677Z,0.00
2018-04-24T02:58:59.666Z,0.00
2018-04-24T02:59:38.654Z,0.00
2018-04-24T03:00:38.650Z,0.00
2018-04-24T03:01:38.645Z,0.00
2018-04-24T03:02:38.624Z,0.00
2018-04-24T03:03:38.621Z,0.00
2018-04-24T03:04:59.608Z,0.00
2018-04-24T03:05:38.596Z,0.00
2018-04-24T03:06:38.577Z,0.00
2018-04-24T03:07:38.569Z,0.00
2018-04-24T03:08:38.560Z,0.00
2018-04-24T03:09:38.552Z,0.00
2018-04-24T03:10:59.546Z,0.00
2018-04-24T03:11:38.527Z,0.00
2018-04-24T03:12:38.527Z,0.00
2018-04-24T03:13:38.510Z,0.00
2018-04-24T03:14:38.505Z,0.00
2018-04-24T03:15:38.492Z,0.00
2018-04-24T03:16:59.486Z,0.00
2018-04-24T03:17:38.468Z,0.00
2018-04-24T03:18:38.462Z,0.00
2018-04-24T03:19:38.451Z,0.00
2018-04-24T03:20:38.435Z,0.00
2018-04-24T03:21:38.435Z,0.00
2018-04-24T03:22:59.418Z,0.00
2018-04-24T03:23:38.402Z,0.00
2018-04-24T03:24:38.390Z,0.00
2018-04-24T03:25:38.384Z,0.00
2018-04-24T03:26:38.371Z,0.00
2018-04-24T03:27:38.355Z,0.00
2018-04-24T03:28:59.354Z,0.00
2018-04-24T03:29:38.341Z,0.00
2018-04-24T03:30:38.336Z,0.00
2018-04-24T03:31:38.329Z,0.00
2018-04-24T03:32:38.312Z,0.00
2018-04-24T03:33:38.301Z,0.00
2018-04-24T03:34:59.297Z,0.00
2018-04-24T03:35:38.279Z,0.00
2018-04-24T03:36:38.266Z,0.00
2018-04-24T03:37:38.252Z,0.00
2018-04-24T03:38:38.248Z,0.00
2018-04-24T03:39:38.243Z,0.00
2018-04-24T03:40:59.232Z,0.00
2018-04-24T03:41:38.219Z,0.00
2018-04-24T03:42:38.209Z,0.00
2018-04-24T03:43:38.193Z,0.00
2018-04-24T03:44:38.182Z,0.00
2018-04-24T03:45:38.182Z,0.00
2018-04-24T03:46:59.163Z,0.00
2018-04-24T03:47:38.152Z,0.00
2018-04-24T03:48:38.141Z,0.00
2018-04-24T03:49:38.126Z,0.00
2018-04-24T03:50:38.120Z,0.00
2018-04-24T03:51:38.127Z,0.00
2018-04-24T03:52:59.102Z,0.00
2018-04-24T03:53:38.097Z,0.00
2018-04-24T03:54:38.079Z,0.00
2018-04-24T03:55:38.069Z,0.00
2018-04-24T03:56:38.060Z,0.00
2018-04-24T03:57:38.052Z,0.00
2018-04-24T03:58:59.071Z,0.00
2018-04-24T03:59:38.037Z,0.00
2018-04-24T04:00:38.022Z,0.00
2018-04-24T04:01:38.005Z,0.00
2018-04-24T04:02:37.994Z,0.00
2018-04-24T04:03:37.992Z,4.00
2018-04-24T04:04:58.986Z,0.00
2018-04-24T04:05:37.960Z,0.00
2018-04-24T04:06:37.954Z,4.00
2018-04-24T04:07:37.999Z,4.00
2018-04-24T04:08:37.926Z,0.00
2018-04-24T04:09:37.929Z,4.00
2018-04-24T04:10:58.915Z,4.00
2018-04-24T04:11:37.893Z,4.00
2018-04-24T04:12:37.885Z,8.00
2018-04-24T04:13:37.880Z,4.00
2018-04-24T04:14:37.867Z,8.00
2018-04-24T04:15:37.860Z,4.00
2018-04-24T04:16:58.852Z,8.00
2018-04-24T04:17:37.833Z,8.00
2018-04-24T04:18:37.821Z,4.00
2018-04-24T04:19:37.820Z,8.00
2018-04-24T04:20:37.811Z,8.00
2018-04-24T04:21:37.793Z,12.00
2018-04-24T04:22:58.797Z,8.00
2018-04-24T04:23:37.809Z,12.00
2018-04-24T04:24:37.765Z,12.00
2018-04-24T04:25:37.762Z,16.00
2018-04-24T04:26:37.735Z,12.00
2018-04-24T04:27:37.727Z,16.00
2018-04-24T04:28:58.730Z,16.00
2018-04-24T04:29:37.706Z,16.00
2018-04-24T04:30:37.708Z,20.00
2018-04-24T04:31:37.690Z,20.00
2018-04-24T04:32:37.674Z,20.00
2018-04-24T04:33:37.671Z,20.00
2018-04-24T04:34:58.660Z,24.00
2018-04-24T04:35:37.644Z,24.00
2018-04-24T04:36:37.631Z,28.00
2018-04-24T04:37:37.623Z,28.00
2018-04-24T04:38:37.612Z,28.00
2018-04-24T04:39:37.609Z,28.00
2018-04-24T04:40:58.597Z,32.00
2018-04-24T04:41:37.572Z,36.00
2018-04-24T04:42:37.564Z,36.00
2018-04-24T04:43:37.562Z,36.00
2018-04-24T04:44:37.540Z,40.00
2018-04-24T04:45:37.540Z,40.00
2018-04-24T04:46:58.541Z,40.00
2018-04-24T04:47:37.522Z,44.00
2018-04-24T04:48:37.506Z,44.00
2018-04-24T04:49:37.493Z,44.00
2018-04-24T04:50:37.497Z,44.00
2018-04-24T04:51:37.464Z,44.00
2018-04-24T04:52:58.464Z,48.00
2018-04-24T04:53:37.451Z,52.00
2018-04-24T04:54:37.436Z,48.00
2018-04-24T04:55:37.438Z,52.00
2018-04-24T04:56:37.409Z,56.00
2018-04-24T04:57:37.408Z,56.00
2018-04-24T04:58:58.401Z,56.00
2018-04-24T04:59:37.402Z,56.00
2018-04-24T05:00:37.371Z,56.00
2018-04-24T05:01:37.389Z,60.00
2018-04-24T05:02:37.368Z,64.00
2018-04-24T05:03:37.344Z,64.00
2018-04-24T05:04:58.359Z,64.00
2018-04-24T05:05:37.323Z,68.00
2018-04-24T05:06:37.311Z,68.00
2018-04-24T05:07:37.300Z,72.00
2018-04-24T05:08:37.288Z,72.00
2018-04-24T05:09:37.277Z,72.00
2018-04-24T05:10:58.281Z,76.00
2018-04-24T05:11:37.246Z,76.00
2018-04-24T05:12:37.243Z,80.00
2018-04-24T05:13:37.236Z,80.00
2018-04-24T05:14:37.220Z,84.00
2018-04-24T05:15:37.221Z,84.00
2018-04-24T05:16:58.209Z,88.00
2018-04-24T05:17:37.194Z,84.00
2018-04-24T05:18:37.190Z,88.00
2018-04-24T05:19:37.163Z,88.00
2018-04-24T05:20:37.167Z,92.00
2018-04-24T05:21:37.146Z,92.00
2018-04-24T05:22:58.140Z,96.00
2018-04-24T05:23:37.125Z,96.00
2018-04-24T05:24:37.117Z,96.00
2018-04-24T05:25:37.107Z,100.00
2018-04-24T05:26:37.219Z,96.00
2018-04-24T05:27:37.074Z,100.00
2018-04-24T05:28:58.076Z,104.00
2018-04-24T05:29:37.072Z,104.00
2018-04-24T05:30:37.066Z,104.00
2018-04-24T05:31:37.043Z,108.00
2018-04-24T05:32:37.034Z,108.00
2018-04-24T05:33:37.025Z,112.00
2018-04-24T05:34:58.019Z,108.00
2018-04-24T05:35:36.995Z,108.00
2018-04-24T05:36:36.988Z,112.00
2018-04-24T05:37:36.980Z,108.00
2018-04-24T05:38:36.964Z,112.00
2018-04-24T05:39:36.956Z,116.00
2018-04-24T05:40:57.945Z,116.00
2018-04-24T05:41:36.930Z,116.00
2018-04-24T05:42:36.938Z,116.00
2018-04-24T05:43:36.908Z,116.00
2018-04-24T05:44:36.893Z,120.00
2018-04-24T05:45:36.888Z,120.00
2018-04-24T05:46:57.886Z,120.00
2018-04-24T05:47:36.865Z,124.00
2018-04-24T05:48:36.858Z,124.00
2018-04-24T05:49:36.842Z,128.00
2018-04-24T05:50:36.841Z,128.00
2018-04-24T05:51:36.820Z,132.00
2018-04-24T05:52:57.870Z,136.00
2018-04-24T05:53:36.813Z,140.00
2018-04-24T05:54:36.795Z,140.00
2018-04-24T05:55:36.781Z,140.00
2018-04-24T05:56:36.781Z,144.00
2018-04-24T05:57:36.775Z,144.00
2018-04-24T05:58:57.752Z,144.00
2018-04-24T05:59:36.741Z,144.00
2018-04-24T06:00:36.732Z,148.00
2018-04-24T06:01:36.710Z,148.00
2018-04-24T06:02:36.704Z,148.00
2018-04-24T06:03:36.692Z,144.00
2018-04-24T06:04:57.682Z,148.00
2018-04-24T06:05:36.691Z,144.00
2018-04-24T06:06:36.662Z,148.00
2018-04-24T06:07:36.648Z,148.00
2018-04-24T06:08:36.671Z,148.00
2018-04-24T06:09:36.627Z,152.00
2018-04-24T06:10:57.625Z,148.00
2018-04-24T06:11:36.618Z,152.00
2018-04-24T06:12:36.599Z,152.00
2018-04-24T06:13:36.591Z,156.00
2018-04-24T06:14:36.577Z,152.00
2018-04-24T06:15:36.565Z,148.00
2018-04-24T06:16:57.567Z,152.00
2018-04-24T06:17:36.544Z,152.00
2018-04-24T06:18:36.530Z,156.00
2018-04-24T06:19:36.518Z,160.00
2018-04-24T06:20:36.524Z,172.00
2018-04-24T06:21:36.506Z,236.00
2018-04-24T06:22:57.498Z,364.00
2018-04-24T06:23:36.482Z,432.00
2018-04-24T06:24:36.468Z,440.00
2018-04-24T06:25:36.461Z,444.00
2018-04-24T06:26:36.455Z,444.00
2018-04-24T06:27:36.441Z,448.00
2018-04-24T06:28:57.429Z,456.00
2018-04-24T06:29:36.407Z,468.00
2018-04-24T06:30:36.400Z,468.00
2018-04-24T06:31:36.401Z,472.00
2018-04-24T06:32:36.387Z,476.00
2018-04-24T06:33:36.382Z,484.00
2018-04-24T06:34:57.371Z,488.00
2018-04-24T06:35:36.353Z,492.00
2018-04-24T06:36:36.347Z,500.00
2018-04-24T06:37:36.335Z,508.00
2018-04-24T06:38:36.319Z,512.00
2018-04-24T06:39:36.320Z,524.00
2018-04-24T06:40:57.305Z,532.00
2018-04-24T06:41:36.284Z,540.00
2018-04-24T06:42:36.273Z,548.00
2018-04-24T06:43:36.268Z,552.00
2018-04-24T06:44:36.259Z,560.00
2018-04-24T06:45:36.254Z,568.00
2018-04-24T06:46:57.248Z,576.00
2018-04-24T06:47:36.253Z,584.00
2018-04-24T06:48:36.209Z,592.00
2018-04-24T06:49:36.213Z,596.00
2018-04-24T06:50:36.222Z,604.00
2018-04-24T06:51:36.193Z,612.00
2018-04-24T06:52:57.186Z,620.00
2018-04-24T06:53:36.189Z,628.00
2018-04-24T06:54:36.156Z,632.00
2018-04-24T06:55:36.151Z,640.00
2018-04-24T06:56:36.145Z,644.00
2018-04-24T06:57:36.129Z,652.00
2018-04-24T06:58:57.120Z,660.00
2018-04-24T06:59:36.106Z,668.00
2018-04-24T07:00:36.106Z,676.00
2018-04-24T07:01:36.086Z,684.00
2018-04-24T07:02:36.078Z,688.00
2018-04-24T07:03:36.076Z,692.00
2018-04-24T07:04:57.062Z,700.00
2018-04-24T07:05:36.054Z,712.00
2018-04-24T07:06:36.045Z,720.00
2018-04-24T07:07:36.035Z,724.00
2018-04-24T07:08:36.027Z,732.00
2018-04-24T07:09:36.013Z,740.00
2018-04-24T07:10:57.013Z,752.00
2018-04-24T07:11:35.995Z,760.00
2018-04-24T07:12:35.997Z,776.00
2018-04-24T07:13:35.978Z,788.00
2018-04-24T07:14:35.965Z,788.00
2018-04-24T07:15:35.968Z,788.00
2018-04-24T07:16:57.045Z,796.00
2018-04-24T07:17:35.945Z,800.00
2018-04-24T07:18:35.930Z,812.00
2018-04-24T07:19:35.917Z,820.00
2018-04-24T07:20:35.916Z,828.00
2018-04-24T07:21:35.902Z,836.00
2018-04-24T07:22:56.901Z,844.00
2018-04-24T07:23:35.898Z,856.00
2018-04-24T07:24:35.872Z,864.00
2018-04-24T07:25:35.867Z,872.00
2018-04-24T07:26:35.855Z,880.00
2018-04-24T07:27:35.845Z,892.00
2018-04-24T07:28:56.849Z,900.00
2018-04-24T07:29:35.838Z,908.00
2018-04-24T07:30:35.820Z,924.00
2018-04-24T07:31:35.808Z,932.00
2018-04-24T07:32:35.802Z,944.00
2018-04-24T07:33:35.792Z,948.00
2018-04-24T07:34:56.796Z,964.00
2018-04-24T07:35:35.780Z,972.00
2018-04-24T07:36:35.778Z,980.00
2018-04-24T07:37:35.761Z,992.00
2018-04-24T07:38:35.747Z,1000.00
2018-04-24T07:39:35.750Z,1016.00
2018-04-24T07:40:56.740Z,1032.00
2018-04-24T07:41:35.736Z,1040.00
2018-04-24T07:42:35.721Z,1048.00
2018-04-24T07:43:35.713Z,1060.00
2018-04-24T07:44:35.701Z,1072.00
2018-04-24T07:45:35.686Z,1084.00
2018-04-24T07:46:56.686Z,1096.00
2018-04-24T07:47:35.672Z,1108.00
2018-04-24T07:48:35.661Z,1116.00
2018-04-24T07:49:35.650Z,1128.00
2018-04-24T07:50:35.641Z,1132.00
2018-04-24T07:51:35.630Z,1148.00
2018-04-24T07:52:56.629Z,1156.00
2018-04-24T07:53:35.623Z,1168.00
2018-04-24T07:54:35.613Z,1180.00
2018-04-24T07:55:35.599Z,1188.00
2018-04-24T07:56:35.598Z,1200.00
2018-04-24T07:57:35.580Z,1212.00
2018-04-24T07:58:56.579Z,1224.00
2018-04-24T07:59:35.560Z,1232.00
2018-04-24T08:00:35.549Z,1244.00
2018-04-24T08:01:35.545Z,1256.00
2018-04-24T08:02:35.541Z,1260.00
2018-04-24T08:03:35.539Z,1268.00
2018-04-24T08:04:56.523Z,1280.00
2018-04-24T08:05:35.509Z,1292.00
2018-04-24T08:06:35.501Z,1296.00
2018-04-24T08:07:35.499Z,1304.00
2018-04-24T08:08:35.487Z,1312.00
2018-04-24T08:09:35.480Z,1320.00
2018-04-24T08:10:56.471Z,1328.00
2018-04-24T08:11:35.454Z,1332.00
2018-04-24T08:12:35.448Z,1348.00
2018-04-24T08:13:35.435Z,1356.00
2018-04-24T08:14:35.431Z,1360.00
2018-04-24T08:15:35.427Z,1372.00
2018-04-24T08:16:56.413Z,1376.00
2018-04-24T08:17:35.412Z,1384.00
2018-04-24T08:18:35.403Z,1388.00
2018-04-24T08:19:35.400Z,1400.00
2018-04-24T08:20:35.381Z,1404.00
2018-04-24T08:21:35.378Z,1416.00
2018-04-24T08:22:56.443Z,1420.00
2018-04-24T08:23:35.397Z,1432.00
2018-04-24T08:24:35.347Z,1436.00
2018-04-24T08:25:35.340Z,1448.00
2018-04-24T08:26:35.328Z,1456.00
2018-04-24T08:27:35.324Z,1468.00
2018-04-24T08:28:56.318Z,1476.00
2018-04-24T08:29:35.309Z,1484.00
2018-04-24T08:30:35.303Z,1496.00
2018-04-24T08:31:35.287Z,1508.00
2018-04-24T08:32:35.277Z,1512.00
2018-04-24T08:33:35.273Z,1516.00
2018-04-24T08:34:56.263Z,1524.00
2018-04-24T08:35:35.248Z,1524.00
2018-04-24T08:36:35.244Z,1528.00
2018-04-24T08:37:35.241Z,1536.00
2018-04-24T08:38:35.233Z,1536.00
2018-04-24T08:39:35.218Z,1540.00
2018-04-24T08:40:56.212Z,1540.00
2018-04-24T08:41:35.210Z,1544.00
2018-04-24T08:42:35.201Z,1544.00
2018-04-24T08:43:35.194Z,1552.00
2018-04-24T08:44:35.187Z,1552.00
2018-04-24T08:45:35.177Z,1552.00
2018-04-24T08:46:56.172Z,1560.00
2018-04-24T08:47:35.160Z,1560.00
2018-04-24T08:48:35.150Z,1568.00
2018-04-24T08:49:35.132Z,1568.00
2018-04-24T08:50:35.133Z,1572.00
2018-04-24T08:51:35.119Z,1580.00
2018-04-24T08:52:56.129Z,1584.00
2018-04-24T08:53:35.109Z,1584.00
2018-04-24T08:54:35.125Z,1588.00
2018-04-24T08:55:35.105Z,1588.00
2018-04-24T08:56:35.103Z,1588.00
2018-04-24T08:57:35.994Z,1588.00
2018-04-24T08:58:56.072Z,1596.00
2018-04-24T08:59:35.058Z,1596.00
2018-04-24T09:00:35.054Z,1592.00
2018-04-24T09:01:35.039Z,1592.00
2018-04-24T09:02:35.032Z,1588.00
2018-04-24T09:03:35.030Z,1592.00
2018-04-24T09:04:56.036Z,1592.00
2018-04-24T09:05:35.023Z,1592.00
2018-04-24T09:06:35.005Z,1596.00
2018-04-24T09:07:35.005Z,1596.00
2018-04-24T09:08:35.064Z,1596.00
2018-04-24T09:09:34.987Z,1592.00
2018-04-24T09:10:55.985Z,1592.00
2018-04-24T09:11:34.973Z,1592.00
2018-04-24T09:12:34.959Z,1592.00
2018-04-24T09:13:34.946Z,1592.00
2018-04-24T09:14:34.972Z,1592.00
2018-04-24T09:15:34.940Z,1592.00
2018-04-24T09:16:55.938Z,1592.00
2018-04-24T09:17:34.923Z,1592.00
2018-04-24T09:18:34.915Z,1592.00
2018-04-24T09:19:34.910Z,1596.00
2018-04-24T09:20:34.905Z,1596.00
2018-04-24T09:21:34.921Z,1600.00
2018-04-24T09:22:55.891Z,1600.00
2018-04-24T09:23:34.884Z,1596.00
2018-04-24T09:24:34.877Z,1596.00
2018-04-24T09:25:34.862Z,1592.00
2018-04-24T09:26:34.862Z,1592.00
2018-04-24T09:27:34.853Z,1592.00
2018-04-24T09:28:55.847Z,1592.00
2018-04-24T09:29:34.831Z,1588.00
2018-04-24T09:30:34.856Z,1592.00
2018-04-24T09:31:34.814Z,1592.00
2018-04-24T09:32:34.806Z,1588.00
2018-04-24T09:33:34.887Z,1576.00
2018-04-24T09:34:55.800Z,1588.00
2018-04-24T09:35:34.790Z,1584.00
2018-04-24T09:36:34.787Z,1596.00
2018-04-24T09:37:34.782Z,1596.00
2018-04-24T09:38:34.777Z,1600.00
2018-04-24T09:39:34.771Z,1596.00
2018-04-24T09:40:55.766Z,1560.00
2018-04-24T09:41:34.755Z,1496.00
2018-04-24T09:42:34.748Z,1604.00
2018-04-24T09:43:34.738Z,1608.00
2018-04-24T09:44:34.730Z,1608.00
2018-04-24T09:45:34.720Z,1608.00
2018-04-24T09:46:55.735Z,1608.00
2018-04-24T09:47:34.704Z,1616.00
2018-04-24T09:48:34.696Z,1612.00
2018-04-24T09:49:34.769Z,1612.00
2018-04-24T09:50:34.692Z,1612.00
2018-04-24T09:51:34.673Z,1616.00
2018-04-24T09:52:55.748Z,1612.00
2018-04-24T09:53:34.665Z,1612.00
2018-04-24T09:54:34.653Z,1612.00
2018-04-24T09:55:34.651Z,1612.00
2018-04-24T09:56:34.645Z,1616.00
2018-04-24T09:57:34.637Z,1612.00
2018-04-24T09:58:55.639Z,1616.00
2018-04-24T09:59:34.629Z,1616.00
2018-04-24T10:00:34.609Z,1616.00
2018-04-24T10:01:34.599Z,1616.00
2018-04-24T10:02:34.601Z,1620.00
2018-04-24T10:03:34.589Z,1620.00
2018-04-24T10:04:55.583Z,1620.00
2018-04-24T10:05:34.576Z,1620.00
2018-04-24T10:06:34.575Z,1628.00
2018-04-24T10:07:34.571Z,1632.00
2018-04-24T10:08:34.555Z,1632.00
2018-04-24T10:09:34.545Z,1636.00
2018-04-24T10:10:55.553Z,1636.00
2018-04-24T10:11:34.536Z,1644.00
2018-04-24T10:12:34.526Z,1652.00
2018-04-24T10:13:34.560Z,1648.00
2018-04-24T10:14:34.510Z,1656.00
2018-04-24T10:15:34.503Z,1656.00
2018-04-24T10:16:55.495Z,1668.00
2018-04-24T10:17:34.488Z,1672.00
2018-04-24T10:18:34.492Z,1676.00
2018-04-24T10:19:34.474Z,1680.00
2018-04-24T10:20:34.480Z,1668.00
2018-04-24T10:21:34.468Z,1672.00
2018-04-24T10:22:55.478Z,1656.00
2018-04-24T10:23:34.456Z,1644.00
2018-04-24T10:24:34.444Z,1676.00
2018-04-24T10:25:34.428Z,1664.00
2018-04-24T10:26:34.427Z,1712.00
2018-04-24T10:27:34.426Z,1712.00
2018-04-24T10:28:55.415Z,1720.00
2018-04-24T10:29:34.403Z,1732.00
2018-04-24T10:30:34.397Z,1736.00
2018-04-24T10:31:34.395Z,1744.00
2018-04-24T10:32:34.374Z,1748.00
2018-04-24T10:33:34.373Z,1752.00
2018-04-24T10:34:55.378Z,1760.00
2018-04-24T10:35:34.374Z,1760.00
2018-04-24T10:36:34.363Z,1768.00
2018-04-24T10:37:34.438Z,1772.00
2018-04-24T10:38:34.339Z,1780.00
2018-04-24T10:39:34.337Z,1788.00
2018-04-24T10:40:55.327Z,1796.00
2018-04-24T10:41:34.324Z,1800.00
2018-04-24T10:42:34.315Z,1800.00
2018-04-24T10:43:34.306Z,1812.00
2018-04-24T10:44:34.302Z,1820.00
2018-04-24T10:45:34.295Z,1824.00
2018-04-24T10:46:55.290Z,1832.00
2018-04-24T10:47:34.285Z,1840.00
2018-04-24T10:48:34.282Z,1852.00
2018-04-24T10:49:34.265Z,1856.00
2018-04-24T10:50:34.261Z,1860.00
2018-04-24T10:51:34.309Z,1872.00
2018-04-24T10:52:55.249Z,1884.00
2018-04-24T10:53:34.248Z,1892.00
2018-04-24T10:54:34.236Z,1896.00
2018-04-24T10:55:34.230Z,1908.00
2018-04-24T10:56:34.224Z,1908.00
2018-04-24T10:57:34.221Z,1916.00
2018-04-24T10:58:55.215Z,1924.00
2018-04-24T10:59:34.202Z,1932.00
2018-04-24T11:00:34.240Z,1940.00
2018-04-24T11:01:34.193Z,1952.00
2018-04-24T11:02:34.189Z,1944.00
2018-04-24T11:03:34.173Z,1968.00
2018-04-24T11:04:55.220Z,1976.00
2018-04-24T11:05:34.159Z,1988.00
2018-04-24T11:06:34.171Z,2000.00
2018-04-24T11:07:34.154Z,2008.00
2018-04-24T11:08:34.139Z,2012.00
2018-04-24T11:09:34.134Z,2024.00
2018-04-24T11:10:55.137Z,2036.00
2018-04-24T11:11:34.122Z,2044.00
2018-04-24T11:12:34.119Z,2052.00
2018-04-24T11:13:34.104Z,2056.00
2018-04-24T11:14:34.101Z,2064.00
2018-04-24T11:15:34.091Z,2068.00
2018-04-24T11:16:55.095Z,2088.00
2018-04-24T11:17:34.081Z,2100.00
2018-04-24T11:18:34.081Z,2100.00
2018-04-24T11:19:34.085Z,2104.00
2018-04-24T11:20:34.073Z,2084.00
2018-04-24T11:21:34.069Z,2104.00
2018-04-24T11:22:55.064Z,2084.00
2018-04-24T11:23:34.052Z,2088.00
2018-04-24T11:24:34.048Z,2120.00
2018-04-24T11:25:34.032Z,2152.00
2018-04-24T11:26:34.040Z,2156.00
2018-04-24T11:27:34.021Z,2176.00
2018-04-24T11:28:55.033Z,2184.00
2018-04-24T11:29:34.018Z,2192.00
2018-04-24T11:30:34.027Z,2204.00
2018-04-24T11:31:33.996Z,2212.00
2018-04-24T11:32:34.036Z,2224.00
2018-04-24T11:33:33.984Z,2232.00
2018-04-24T11:34:54.990Z,2240.00
2018-04-24T11:35:33.972Z,2252.00
2018-04-24T11:36:34.029Z,2256.00
2018-04-24T11:37:33.965Z,2268.00
2018-04-24T11:38:34.089Z,2280.00
2018-04-24T11:39:33.956Z,2292.00
2018-04-24T11:40:54.966Z,2300.00
2018-04-24T11:41:34.021Z,2304.00
2018-04-24T11:42:33.944Z,2316.00
2018-04-24T11:43:33.934Z,2328.00
2018-04-24T11:44:33.980Z,2336.00
2018-04-24T11:45:33.929Z,2344.00
2018-04-24T11:46:54.926Z,2360.00
2018-04-24T11:47:33.907Z,2372.00
2018-04-24T11:48:33.903Z,2380.00
2018-04-24T11:49:33.902Z,2396.00
2018-04-24T11:50:33.893Z,2400.00
2018-04-24T11:51:33.884Z,2412.00
2018-04-24T11:52:54.889Z,2420.00
2018-04-24T11:53:33.883Z,2432.00
2018-04-24T11:54:33.867Z,2428.00
2018-04-24T11:55:33.863Z,2452.00
2018-04-24T11:56:33.857Z,2460.00
2018-04-24T11:57:33.849Z,2464.00
2018-04-24T11:58:54.853Z,2476.00
2018-04-24T11:59:33.846Z,2488.00
2018-04-24T12:00:33.835Z,2504.00
2018-04-24T12:01:33.828Z,2516.00
2018-04-24T12:02:33.874Z,2528.00
2018-04-24T12:03:33.816Z,2540.00
2018-04-24T12:04:54.821Z,2552.00
2018-04-24T12:05:33.802Z,2560.00
2018-04-24T12:06:33.816Z,2568.00
2018-04-24T12:07:33.798Z,2576.00
2018-04-24T12:08:33.791Z,2584.00
2018-04-24T12:09:33.788Z,2592.00
2018-04-24T12:10:54.788Z,2596.00
2018-04-24T12:11:33.772Z,2608.00
2018-04-24T12:12:33.769Z,2612.00
2018-04-24T12:13:33.774Z,2620.00
2018-04-24T12:14:33.764Z,2628.00
2018-04-24T12:15:33.757Z,2636.00
2018-04-24T12:16:54.752Z,2644.00
2018-04-24T12:17:33.751Z,2656.00
2018-04-24T12:18:33.747Z,2664.00
2018-04-24T12:19:33.728Z,2672.00
2018-04-24T12:20:33.720Z,2680.00
2018-04-24T12:21:33.722Z,2688.00
2018-04-24T12:22:54.723Z,2692.00
2018-04-24T12:23:33.713Z,2700.00
2018-04-24T12:24:33.761Z,2704.00
2018-04-24T12:25:33.704Z,2716.00
2018-04-24T12:26:33.692Z,2724.00
2018-04-24T12:27:33.690Z,2724.00
2018-04-24T12:28:54.694Z,2728.00
2018-04-24T12:29:33.677Z,2736.00
2018-04-24T12:30:33.692Z,2744.00
2018-04-24T12:31:33.675Z,2756.00
2018-04-24T12:32:33.674Z,2764.00
2018-04-24T12:33:33.661Z,2772.00
2018-04-24T12:34:54.668Z,2772.00
2018-04-24T12:35:33.647Z,2780.00
2018-04-24T12:36:33.645Z,2788.00
2018-04-24T12:37:33.648Z,2792.00